Weather at Samos Airport

Public forecast

Using degrees Celsius for public forecast. Weather courtesy of forecast.io.

Current aviation weather report (METAR) for Samos Airport

2024/05/28 04:50 (retrieved 27 minutes ago)

LGSM 280450Z 02014KT 330V060 CAVOK 20/08 Q1011

Closest aviation forecast (TAF) to Samos Airport

Forecast is more than 6 hours old.

Closest forecast is Kukës International Airport, 396.9 nm (735.1 km) NW.

2024/05/27 18:00 Ammendment (retrieved 11 hours ago)

TAF AMD LAKU 271900Z 2718/2818 CNL